Time;durP1;ratioP1;P1;durP2;ratioP2;P2;SDS_P1;SDS_P2;PMS_P1;PMS_P2;Temp;Humidity;BMP_temperature;BMP_pressure;BME280_temperature;BME280_humidity;BME280_pressure;Samples;Min_cycle;Max_cycle;Signal;HPM_P1;HPM_P2
2022/12/07 00:00:31;;;;;;;16.25;13.30;;;;;;;6.59;94.32;98170.69;4185425;28;20253;-85
2022/12/07 00:02:35;;;;;;;13.50;11.43;;;;;;;6.58;95.07;98176.78;4183037;28;20819;-85
2022/12/07 00:04:38;;;;;;;12.65;10.68;;;;;;;6.58;94.59;98169.00;4199567;28;20265;-85
2022/12/07 00:06:43;;;;;;;14.73;11.43;;;;;;;6.57;95.27;98178.53;4196360;28;20213;-84
2022/12/07 00:08:47;;;;;;;17.48;12.85;;;;;;;6.56;94.83;98184.63;4195185;28;20213;-84
2022/12/07 00:10:50;;;;;;;14.30;11.10;;;;;;;6.56;95.39;98178.63;4185762;28;20210;-85
2022/12/07 00:12:53;;;;;;;13.65;11.32;;;;;;;6.56;94.32;98181.22;4202168;28;20213;-84
2022/12/07 00:14:56;;;;;;;14.00;10.80;;;;;;;6.56;94.86;98176.03;4199096;28;20251;-84
2022/12/07 00:17:00;;;;;;;12.45;10.82;;;;;;;6.55;94.85;98181.28;4180272;28;20589;-84
2022/12/07 00:19:04;;;;;;;13.85;10.98;;;;;;;6.54;94.75;98177.88;4187589;28;20233;-85
2022/12/07 00:21:08;;;;;;;12.88;10.70;;;;;;;6.54;95.06;98177.00;4196249;28;20211;-85
2022/12/07 00:23:12;;;;;;;13.80;11.10;;;;;;;6.53;94.86;98170.19;4184308;28;20301;-84
2022/12/07 00:25:15;;;;;;;11.63;10.27;;;;;;;6.54;94.22;98170.09;4181001;28;20229;-84
2022/12/07 00:27:18;;;;;;;11.98;10.00;;;;;;;6.54;94.92;98172.69;4215068;28;20981;-84
2022/12/07 00:29:23;;;;;;;12.80;11.13;;;;;;;6.53;94.89;98173.59;4185247;28;20232;-85
2022/12/07 00:31:28;;;;;;;13.70;11.23;;;;;;;6.55;95.07;98179.53;4186226;28;20197;-84
2022/12/07 00:33:31;;;;;;;11.85;10.65;;;;;;;6.52;94.84;98171.91;4183376;28;20269;-84
2022/12/07 00:35:34;;;;;;;12.60;11.25;;;;;;;6.52;95.28;98174.50;4196978;28;20207;-84
2022/12/07 00:37:37;;;;;;;12.38;9.77;;;;;;;6.53;95.39;98170.19;4198824;28;20706;-84
2022/12/07 00:39:42;;;;;;;17.00;9.93;;;;;;;6.51;94.82;98170.25;4184792;28;20257;-85
2022/12/07 00:41:45;;;;;;;11.88;10.55;;;;;;;6.51;94.30;98161.63;4196959;28;20213;-84
2022/12/07 00:43:49;;;;;;;12.23;10.43;;;;;;;6.51;93.78;98166.81;4182845;28;20209;-84
2022/12/07 00:45:52;;;;;;;15.10;10.63;;;;;;;6.48;94.18;98162.63;4201639;28;20240;-85
2022/12/07 00:47:55;;;;;;;13.25;10.13;;;;;;;6.49;93.40;98163.47;4204074;28;20258;-84
2022/12/07 00:49:58;;;;;;;16.65;12.25;;;;;;;6.48;94.32;98164.38;4196583;28;20232;-84
2022/12/07 00:52:01;;;;;;;17.15;12.55;;;;;;;6.47;94.18;98168.72;4187467;28;20764;-84
2022/12/07 00:54:05;;;;;;;14.82;10.18;;;;;;;6.46;92.90;98163.63;4198153;28;20622;-85
2022/12/07 00:56:12;;;;;;;12.52;10.13;;;;;;;6.45;93.38;98170.56;4197747;28;20210;-85
2022/12/07 00:58:15;;;;;;;14.20;11.80;;;;;;;6.45;92.54;98170.56;4198652;28;20769;-85
2022/12/07 01:00:18;;;;;;;14.77;11.80;;;;;;;6.43;93.10;98169.78;4194086;28;20211;-85
2022/12/07 01:02:22;;;;;;;14.77;12.50;;;;;;;6.41;92.72;98173.38;4197151;28;20209;-85
2022/12/07 01:04:25;;;;;;;14.40;11.32;;;;;;;6.39;92.50;98168.28;4182898;28;20871;-85
2022/12/07 01:06:28;;;;;;;15.57;11.88;;;;;;;6.40;93.38;98175.13;4198252;28;21476;-85
2022/12/07 01:08:32;;;;;;;14.70;11.50;;;;;;;6.37;92.55;98172.69;4183055;28;20201;-84
2022/12/07 01:10:35;;;;;;;14.73;11.88;;;;;;;6.37;93.17;98175.28;4189014;28;20207;-84
2022/12/07 01:12:39;;;;;;;13.95;11.68;;;;;;;6.38;93.05;98176.13;4197538;28;20199;-84
2022/12/07 01:14:42;;;;;;;13.48;11.40;;;;;;;6.36;93.00;98180.53;4194439;28;20197;-84
2022/12/07 01:16:45;;;;;;;13.63;11.10;;;;;;;6.34;92.60;98169.41;4206057;28;20810;-85
2022/12/07 01:18:50;;;;;;;12.80;10.40;;;;;;;6.33;92.44;98175.50;4202116;28;20269;-84
2022/12/07 01:21:05;;;;;;;12.98;10.27;;;;;;;6.32;92.19;98173.84;4198226;28;20237;-84
2022/12/07 01:23:08;;;;;;;12.27;10.60;;;;;;;6.32;91.95;98169.50;4200023;28;20290;-85
2022/12/07 01:25:12;;;;;;;12.30;9.90;;;;;;;6.31;91.58;98167.81;4181690;28;20682;-84
2022/12/07 01:27:16;;;;;;;12.45;10.15;;;;;;;6.30;91.44;98176.50;4186166;28;20211;-85
2022/12/07 01:29:20;;;;;;;14.95;10.30;;;;;;;6.30;91.95;98171.34;4183844;28;20585;-84
2022/12/07 01:31:25;;;;;;;13.13;10.10;;;;;;;6.30;91.48;98175.66;4196895;28;20339;-84
2022/12/07 01:33:29;;;;;;;14.65;11.00;;;;;;;6.30;91.73;98168.75;4199338;28;20751;-84
2022/12/07 01:35:34;;;;;;;14.77;9.30;;;;;;;6.30;92.05;98178.25;4197762;28;20205;-84
2022/12/07 01:37:38;;;;;;;12.30;9.07;;;;;;;6.27;92.03;98174.06;4182780;28;20665;-84
2022/12/07 01:39:41;;;;;;;12.95;9.32;;;;;;;6.22;91.99;98165.72;4199312;28;20282;-84
2022/12/07 01:41:44;;;;;;;12.02;8.82;;;;;;;6.23;92.17;98172.53;4180300;28;20701;-84
2022/12/07 01:44:21;;;;;;;15.10;10.63;;;;;;;6.22;91.77;98178.66;4195220;28;20218;-84
2022/12/07 01:46:25;;;;;;;13.05;9.40;;;;;;;6.21;92.10;98179.56;4192786;28;20260;-84
2022/12/07 01:48:32;;;;;;;14.45;10.32;;;;;;;6.22;91.79;98176.06;4184439;28;20244;-84
2022/12/07 01:50:36;;;;;;;13.93;9.88;;;;;;;6.23;91.79;98177.72;4202747;28;20278;-84
2022/12/07 01:52:39;;;;;;;12.77;9.60;;;;;;;6.22;92.34;98180.38;4187931;28;20200;-84
2022/12/07 01:54:43;;;;;;;14.30;10.50;;;;;;;6.23;92.15;98180.31;4200518;28;20623;-84
2022/12/07 01:56:50;;;;;;;16.25;10.98;;;;;;;6.23;92.59;98182.91;4197424;28;20251;-84
2022/12/07 01:58:53;;;;;;;14.55;9.93;;;;;;;6.25;92.50;98180.22;4186681;28;20715;-84
2022/12/07 02:00:56;;;;;;;16.52;12.10;;;;;;;6.24;91.67;98179.41;4205307;28;20212;-84
2022/12/07 02:03:05;;;;;;;15.85;11.50;;;;;;;6.26;92.10;98182.75;4195658;28;20889;-84
2022/12/07 02:05:09;;;;;;;16.23;11.65;;;;;;;6.25;92.20;98178.47;4188672;28;20219;-84
2022/12/07 02:07:12;;;;;;;13.82;10.68;;;;;;;6.21;91.45;98179.56;4183084;28;20854;-84
2022/12/07 02:09:15;;;;;;;15.05;10.40;;;;;;;6.23;91.96;98176.91;4198084;28;20202;-84
2022/12/07 02:11:18;;;;;;;13.50;10.18;;;;;;;6.26;92.31;98182.75;4203070;28;20300;-84
2022/12/07 02:13:25;;;;;;;13.25;9.75;;;;;;;6.26;92.33;98176.75;4185370;28;20252;-84
2022/12/07 02:15:42;;;;;;;15.20;10.02;;;;;;;6.24;91.75;98173.38;4193486;28;20203;-84
2022/12/07 02:17:52;;;;;;;13.43;10.13;;;;;;;6.22;92.63;98176.06;4184926;28;20199;-84
2022/12/07 02:20:08;;;;;;;13.43;9.70;;;;;;;6.20;92.69;98175.28;4179386;28;20261;-84
2022/12/07 02:22:24;;;;;;;14.10;9.63;;;;;;;6.20;92.27;98167.53;4185501;28;20217;-84
2022/12/07 02:24:43;;;;;;;14.90;9.52;;;;;;;6.19;92.81;98171.03;4199596;28;20575;-84
2022/12/07 02:27:11;;;;;;;13.60;9.32;;;;;;;6.19;92.65;98177.94;4205317;28;20210;-84
2022/12/07 02:29:20;;;;;;;12.55;9.35;;;;;;;6.19;92.32;98170.19;4186419;28;20198;-84
2022/12/07 02:31:24;;;;;;;12.77;9.30;;;;;;;6.19;92.95;98162.41;4197763;28;20211;-84
2022/12/07 02:33:32;;;;;;;12.50;9.10;;;;;;;6.20;92.71;98161.50;4194859;28;20198;-84
2022/12/07 02:35:41;;;;;;;12.63;8.52;;;;;;;6.19;92.64;98165.88;4198638;28;20686;-84
2022/12/07 02:37:53;;;;;;;16.83;10.60;;;;;;;6.20;93.01;98161.50;4194049;28;20205;-85
2022/12/07 02:39:59;;;;;;;12.60;8.57;;;;;;;6.19;92.97;98165.88;4196784;28;20226;-84
2022/12/07 02:42:09;;;;;;;12.18;9.20;;;;;;;6.20;93.04;98162.34;4191757;28;20206;-84
2022/12/07 02:44:14;;;;;;;13.68;9.52;;;;;;;6.22;93.34;98157.94;4200186;28;20230;-84
2022/12/07 02:46:22;;;;;;;13.75;9.70;;;;;;;6.24;93.06;98166.47;4196278;28;20205;-84
2022/12/07 02:48:26;;;;;;;14.02;9.63;;;;;;;6.23;93.04;98158.78;4187017;28;20213;-84
2022/12/07 02:50:29;;;;;;;14.27;10.00;;;;;;;6.22;92.94;98157.09;4189001;28;20198;-84
2022/12/07 02:52:32;;;;;;;15.38;10.15;;;;;;;6.25;92.51;98152.59;4185302;28;20221;-85
2022/12/07 02:54:35;;;;;;;15.52;9.90;;;;;;;6.27;93.08;98152.50;4202942;28;20197;-85
2022/12/07 02:56:46;;;;;;;11.82;8.85;;;;;;;6.26;92.69;98146.50;4186445;28;21093;-84
2022/12/07 02:58:55;;;;;;;15.13;10.15;;;;;;;6.26;92.96;98143.91;4189290;28;20852;-84
2022/12/07 03:01:07;;;;;;;13.45;9.43;;;;;;;6.28;92.94;98151.59;4184036;28;20230;-84
2022/12/07 03:03:13;;;;;;;13.35;9.10;;;;;;;6.26;92.86;98143.91;4187411;28;20240;-84
2022/12/07 03:05:29;;;;;;;13.23;9.35;;;;;;;6.27;93.00;98150.78;4188286;28;20233;-84
2022/12/07 03:07:36;;;;;;;13.93;10.02;;;;;;;6.27;92.55;98148.19;4199132;28;20628;-84
2022/12/07 03:09:44;;;;;;;12.90;9.15;;;;;;;6.27;92.59;98142.16;4204618;28;20228;-85
2022/12/07 03:11:51;;;;;;;12.55;9.65;;;;;;;6.28;92.86;98144.66;4187181;28;20282;-84
2022/12/07 03:14:00;;;;;;;12.68;9.00;;;;;;;6.25;92.32;98149.16;4181909;28;20298;-84
2022/12/07 03:16:07;;;;;;;13.02;9.30;;;;;;;6.24;93.33;98148.34;4197791;28;20196;-84
2022/12/07 03:18:13;;;;;;;11.18;8.82;;;;;;;6.22;92.88;98150.19;4184459;28;20202;-84
2022/12/07 03:20:20;;;;;;;13.75;9.38;;;;;;;6.21;93.45;98143.31;4188530;28;20224;-84
2022/12/07 03:22:23;;;;;;;11.55;8.18;;;;;;;6.21;93.55;98139.91;4201094;28;20208;-85
2022/12/07 03:24:29;;;;;;;11.00;8.40;;;;;;;6.21;92.80;98147.66;4200569;28;20210;-85
2022/12/07 03:26:35;;;;;;;12.13;8.82;;;;;;;6.20;93.68;98146.81;4185441;28;20230;-85
2022/12/07 03:28:42;;;;;;;12.45;9.20;;;;;;;6.22;93.45;98142.41;4190920;28;20264;-84
2022/12/07 03:30:47;;;;;;;12.15;9.15;;;;;;;6.23;93.39;98136.28;4196330;28;20201;-85
2022/12/07 03:32:55;;;;;;;12.77;8.73;;;;;;;6.25;93.49;98139.63;4198119;28;20301;-84
2022/12/07 03:35:04;;;;;;;14.30;9.57;;;;;;;6.24;93.67;98145.75;4201268;28;20593;-85
2022/12/07 03:37:11;;;;;;;17.63;9.70;;;;;;;6.23;92.66;98140.66;4179925;28;20213;-84
2022/12/07 03:39:19;;;;;;;11.90;9.20;;;;;;;6.24;92.88;98148.34;4188697;28;20209;-84
2022/12/07 03:41:24;;;;;;;13.43;9.40;;;;;;;6.24;92.75;98143.16;4184843;28;20370;-84
2022/12/07 03:43:29;;;;;;;12.27;8.70;;;;;;;6.26;93.10;98140.50;4194608;28;20215;-84
2022/12/07 03:45:38;;;;;;;13.80;9.35;;;;;;;6.26;92.61;98138.72;4175466;28;20684;-85
2022/12/07 03:47:46;;;;;;;11.98;8.88;;;;;;;6.27;93.16;98136.97;4193167;28;20203;-85
2022/12/07 03:49:52;;;;;;;14.52;8.90;;;;;;;6.27;93.34;98131.78;4181681;28;20670;-85
2022/12/07 03:52:01;;;;;;;11.85;8.60;;;;;;;6.24;92.59;98135.38;4198812;28;20206;-84
2022/12/07 03:54:10;;;;;;;11.73;8.65;;;;;;;6.23;92.90;98123.34;4203036;28;20712;-85
2022/12/07 03:56:13;;;;;;;12.55;9.10;;;;;;;6.19;93.13;98111.50;4188140;28;20217;-84
2022/12/07 03:58:19;;;;;;;12.63;9.50;;;;;;;6.12;92.10;98098.94;4201684;28;20253;-85
2022/12/07 04:00:22;;;;;;;14.18;9.85;;;;;;;6.02;92.72;98095.13;4189013;28;20233;-84
2022/12/07 04:02:26;;;;;;;12.88;9.68;;;;;;;5.95;93.14;98093.75;4201489;28;20295;-84
2022/12/07 04:04:29;;;;;;;12.35;9.68;;;;;;;5.87;92.88;98093.31;4188455;28;20314;-84
2022/12/07 04:06:32;;;;;;;13.10;9.63;;;;;;;5.84;93.32;98103.81;4189342;28;20254;-84
2022/12/07 04:08:37;;;;;;;13.77;9.40;;;;;;;5.84;92.94;98100.41;4184874;28;20203;-85
2022/12/07 04:10:40;;;;;;;13.30;9.95;;;;;;;5.86;93.21;98101.97;4186007;28;20241;-84
2022/12/07 04:12:43;;;;;;;13.55;10.07;;;;;;;5.82;93.51;98102.22;4199650;28;20228;-84
2022/12/07 04:14:46;;;;;;;13.63;9.77;;;;;;;5.79;93.56;98102.38;4185269;28;20246;-84
2022/12/07 04:16:50;;;;;;;12.55;9.48;;;;;;;5.82;93.74;98110.00;4188327;28;20228;-84
2022/12/07 04:18:53;;;;;;;16.45;10.20;;;;;;;5.82;93.57;98113.41;4220157;28;20204;-84
2022/12/07 04:20:56;;;;;;;14.00;9.85;;;;;;;5.83;93.28;98104.75;4181551;28;20632;-84
2022/12/07 04:23:00;;;;;;;15.50;9.65;;;;;;;5.83;93.97;98101.28;4198339;28;20685;-84
2022/12/07 04:25:05;;;;;;;13.52;10.30;;;;;;;5.88;94.06;98096.72;4200040;28;20197;-85
2022/12/07 04:27:08;;;;;;;10.90;8.52;;;;;;;5.91;94.14;98091.38;4183542;28;20212;-84
2022/12/07 04:29:12;;;;;;;12.52;9.98;;;;;;;5.93;93.87;98093.00;4200257;28;20282;-84
2022/12/07 04:31:15;;;;;;;10.93;8.90;;;;;;;5.95;94.15;98096.34;4200180;28;20594;-84
2022/12/07 04:33:18;;;;;;;12.18;9.13;;;;;;;5.97;93.76;98102.28;4199256;28;20298;-84
2022/12/07 04:35:21;;;;;;;13.45;10.02;;;;;;;5.97;93.40;98098.84;4209942;28;20200;-84
2022/12/07 04:37:24;;;;;;;11.90;8.43;;;;;;;6.00;93.93;98093.53;4189975;28;20738;-84
2022/12/07 04:39:29;;;;;;;15.05;10.57;;;;;;;6.00;94.26;98091.78;4197457;28;20209;-84
2022/12/07 04:41:33;;;;;;;14.40;9.80;;;;;;;6.03;94.30;98094.22;4190299;28;20223;-85
2022/12/07 04:43:36;;;;;;;11.52;8.75;;;;;;;6.07;94.02;98094.91;4196612;28;20200;-84
2022/12/07 04:45:39;;;;;;;13.63;10.57;;;;;;;6.05;93.61;98107.91;4189085;28;20211;-84
2022/12/07 04:47:42;;;;;;;15.25;11.88;;;;;;;6.01;93.39;98118.50;4193922;28;20199;-84
2022/12/07 04:49:45;;;;;;;15.13;11.10;;;;;;;5.99;93.21;98112.56;4188534;28;20251;-85
2022/12/07 04:51:49;;;;;;;15.15;11.48;;;;;;;5.98;93.49;98106.53;4189053;28;20929;-84
2022/12/07 04:53:52;;;;;;;13.10;10.45;;;;;;;6.00;93.79;98101.28;4185669;28;20648;-85
2022/12/07 04:55:55;;;;;;;13.90;10.90;;;;;;;6.00;94.09;98099.56;4195179;28;20267;-85
2022/12/07 04:57:59;;;;;;;12.65;10.13;;;;;;;6.01;93.50;98108.16;4202998;28;20656;-85
2022/12/07 05:00:03;;;;;;;14.57;10.52;;;;;;;5.95;93.92;98116.22;4196020;28;20213;-85
2022/12/07 05:02:07;;;;;;;14.48;10.48;;;;;;;5.97;94.17;98116.97;4197886;28;20231;-85
2022/12/07 05:04:10;;;;;;;12.05;9.20;;;;;;;5.97;94.07;98114.38;4186387;28;20229;-84
2022/12/07 05:06:14;;;;;;;13.32;10.63;;;;;;;5.98;94.50;98113.47;4186452;28;20259;-84
2022/12/07 05:08:17;;;;;;;11.23;9.43;;;;;;;5.97;93.90;98117.81;4182258;28;20308;-84
2022/12/07 05:10:21;;;;;;;13.70;10.18;;;;;;;5.97;94.26;98111.78;4196193;28;20210;-84
2022/12/07 05:12:24;;;;;;;14.63;10.13;;;;;;;5.96;94.26;98112.72;4188410;28;20217;-84
2022/12/07 05:14:28;;;;;;;16.52;9.70;;;;;;;5.92;93.69;98119.78;4199823;28;20235;-84
2022/12/07 05:16:31;;;;;;;13.23;9.50;;;;;;;5.92;94.19;98117.19;4185603;28;20202;-85
2022/12/07 05:18:34;;;;;;;14.00;9.70;;;;;;;5.93;93.66;98118.06;4197887;28;20671;-84
2022/12/07 05:20:37;;;;;;;11.90;8.65;;;;;;;5.93;93.50;98115.47;4188374;28;20206;-85
2022/12/07 05:22:44;;;;;;;13.75;9.30;;;;;;;5.93;93.67;98120.63;4199080;28;20604;-84
2022/12/07 05:24:47;;;;;;;11.73;8.65;;;;;;;5.92;93.98;98121.53;4196909;28;20220;-84
2022/12/07 05:26:51;;;;;;;12.60;9.80;;;;;;;5.93;94.04;98118.06;4203022;28;20214;-84
2022/12/07 05:28:54;;;;;;;11.88;9.02;;;;;;;5.91;93.32;98114.69;4197762;28;20209;-84
2022/12/07 05:30:59;;;;;;;13.18;9.48;;;;;;;5.91;93.27;98112.09;4185712;28;20286;-85
2022/12/07 05:33:02;;;;;;;13.27;8.95;;;;;;;5.89;93.28;98106.16;4199634;28;20201;-85
2022/12/07 05:35:08;;;;;;;11.82;8.88;;;;;;;5.88;93.32;98104.47;4183024;28;20227;-85
2022/12/07 05:37:11;;;;;;;11.15;9.10;;;;;;;5.85;93.43;98102.91;4202486;28;20203;-85
2022/12/07 05:39:15;;;;;;;12.82;9.55;;;;;;;5.86;93.30;98109.72;4190468;28;20288;-86
2022/12/07 05:43:51;;;;;;;16.20;9.55;;;;;;;5.88;93.30;98109.66;4137534;28;20225;-84
2022/12/07 05:45:54;;;;;;;11.57;8.70;;;;;;;5.86;92.67;98108.91;4144506;28;20597;-85
2022/12/07 05:47:58;;;;;;;14.77;9.70;;;;;;;5.82;93.02;98107.41;4197918;28;20211;-85
2022/12/07 05:50:01;;;;;;;14.95;11.77;;;;;;;5.79;92.90;98113.56;4197473;28;20278;-85
2022/12/07 05:52:05;;;;;;;16.02;10.55;;;;;;;5.79;94.16;98102.38;4190040;28;20209;-85
2022/12/07 05:54:08;;;;;;;14.63;9.65;;;;;;;5.78;93.57;98105.88;4202683;28;20735;-85
2022/12/07 05:56:11;;;;;;;16.98;9.88;;;;;;;5.75;93.99;98111.19;4185931;28;20268;-85
2022/12/07 06:00:36;;;;;;;17.50;11.18;;;;;;;5.73;93.77;98106.06;4188075;28;20696;-85
2022/12/07 06:02:39;;;;;;;16.15;11.85;;;;;;;5.72;93.79;98106.97;4186074;28;20227;-85
2022/12/07 06:04:45;;;;;;;16.02;12.90;;;;;;;5.75;94.06;98101.66;4195243;28;20224;-84
2022/12/07 06:06:48;;;;;;;16.30;12.43;;;;;;;5.76;93.84;98108.53;4184946;28;20229;-84
2022/12/07 06:08:51;;;;;;;15.55;11.57;;;;;;;5.73;93.91;98100.06;4207430;28;20284;-84
2022/12/07 06:13:11;;;;;;;14.68;10.90;;;;;;;5.73;93.74;98103.47;4205539;28;20208;-85
2022/12/07 06:15:14;;;;;;;14.75;11.00;;;;;;;5.75;93.82;98108.59;4183160;28;20239;-85
2022/12/07 06:17:18;;;;;;;14.55;9.73;;;;;;;5.72;93.69;98106.97;4199388;28;20212;-84
2022/12/07 06:19:21;;;;;;;13.80;10.48;;;;;;;5.71;94.79;98102.72;4187489;28;20214;-84
2022/12/07 06:21:26;;;;;;;17.30;11.32;;;;;;;5.73;93.73;98102.66;4184984;28;20713;-85
2022/12/07 06:23:29;;;;;;;14.25;9.90;;;;;;;5.76;94.13;98105.94;4196798;28;20197;-84
2022/12/07 06:25:32;;;;;;;14.65;10.32;;;;;;;5.74;93.76;98106.91;4186218;28;20210;-83
2022/12/07 06:27:35;;;;;;;13.30;10.38;;;;;;;5.77;93.73;98114.53;4201669;28;20230;-84
2022/12/07 06:29:39;;;;;;;14.75;9.85;;;;;;;5.77;93.12;98124.88;4199655;28;20198;-84
2022/12/07 06:31:42;;;;;;;12.20;9.13;;;;;;;5.74;93.47;98119.84;4198104;28;20285;-83
2022/12/07 06:33:45;;;;;;;14.20;9.70;;;;;;;5.73;93.58;98118.16;4185438;28;20208;-83
2022/12/07 06:35:48;;;;;;;12.45;9.75;;;;;;;5.74;93.84;98118.13;4185606;28;20586;-81
2022/12/07 06:37:53;;;;;;;12.52;9.30;;;;;;;5.72;93.34;98119.91;4180034;28;20206;-84
2022/12/07 06:39:56;;;;;;;16.20;10.02;;;;;;;5.69;93.42;98116.63;4199279;28;20293;-83
2022/12/07 06:42:00;;;;;;;14.88;10.45;;;;;;;5.68;93.72;98109.78;4197038;28;20259;-84
2022/12/07 06:44:03;;;;;;;13.77;9.18;;;;;;;5.68;93.37;98113.22;4200487;28;20214;-84
2022/12/07 06:46:06;;;;;;;15.23;9.88;;;;;;;5.68;93.90;98114.94;4197611;28;20333;-84
2022/12/07 06:48:09;;;;;;;16.58;9.90;;;;;;;5.66;93.69;98117.59;4204837;28;20454;-84
2022/12/07 06:50:13;;;;;;;11.88;9.25;;;;;;;5.66;93.59;98117.59;4180395;28;20213;-84
2022/12/07 06:52:16;;;;;;;13.10;9.20;;;;;;;5.70;93.81;98121.72;4199791;28;20845;-84
2022/12/07 06:54:20;;;;;;;13.18;9.80;;;;;;;5.69;93.52;98114.88;4198209;28;20237;-84
2022/12/07 06:56:23;;;;;;;11.23;8.77;;;;;;;5.69;93.59;98116.63;4195297;28;20210;-84
2022/12/07 06:58:26;;;;;;;15.07;10.18;;;;;;;5.70;93.19;98115.72;4196934;28;20209;-84
2022/12/07 07:00:29;;;;;;;11.35;8.82;;;;;;;5.69;93.19;98111.47;4199127;28;20214;-84
2022/12/07 07:02:32;;;;;;;12.60;9.45;;;;;;;5.68;93.31;98115.81;4194224;28;20605;-85
2022/12/07 07:04:36;;;;;;;13.38;9.48;;;;;;;5.67;92.53;98124.47;4175687;28;20222;-85
2022/12/07 07:06:39;;;;;;;14.75;9.82;;;;;;;5.65;93.08;98122.84;4182194;28;20201;-85
2022/12/07 07:08:42;;;;;;;14.18;10.02;;;;;;;5.63;92.77;98122.09;4180911;28;20208;-86
2022/12/07 07:10:47;;;;;;;13.48;9.48;;;;;;;5.62;92.68;98125.59;4180619;28;20209;-86
2022/12/07 07:12:50;;;;;;;12.80;8.45;;;;;;;5.60;93.41;98132.59;4183561;28;20686;-85
2022/12/07 07:14:59;;;;;;;12.50;8.85;;;;;;;5.61;92.60;98126.53;4194110;28;20281;-85
2022/12/07 07:17:02;;;;;;;14.18;9.02;;;;;;;5.53;93.14;98125.19;4196653;28;20204;-86
2022/12/07 07:19:05;;;;;;;16.42;8.90;;;;;;;5.51;93.12;98125.28;4195668;28;20550;-84
2022/12/07 07:21:08;;;;;;;12.80;8.82;;;;;;;5.55;93.62;98128.53;4196292;28;20740;-87
2022/12/07 07:23:11;;;;;;;15.18;11.40;;;;;;;5.55;93.31;98126.81;4180291;28;20225;-85
2022/12/07 07:25:14;;;;;;;14.80;10.10;;;;;;;5.57;93.18;98131.91;4182948;28;20226;-85
2022/12/07 07:27:18;;;;;;;14.65;10.95;;;;;;;5.57;92.93;98131.91;4190422;28;20226;-85
2022/12/07 07:29:21;;;;;;;14.93;9.38;;;;;;;5.58;93.29;98134.44;4199386;28;20214;-85
2022/12/07 07:31:25;;;;;;;11.10;8.45;;;;;;;5.60;93.67;98146.34;4203406;28;20209;-84
2022/12/07 07:33:28;;;;;;;16.52;9.55;;;;;;;5.64;93.31;98140.13;4195737;28;20289;-84
2022/12/07 07:35:32;;;;;;;15.13;11.23;;;;;;;5.68;93.48;98140.81;4187504;28;20599;-84
2022/12/07 07:37:35;;;;;;;14.30;10.00;;;;;;;5.71;93.28;98135.50;4198980;28;20732;-84
2022/12/07 07:39:38;;;;;;;12.77;9.13;;;;;;;5.72;92.96;98132.00;4198631;28;20765;-85
2022/12/07 07:41:41;;;;;;;13.95;8.50;;;;;;;5.71;93.03;98135.50;4198407;28;20724;-84
2022/12/07 07:43:50;;;;;;;12.52;9.38;;;;;;;5.71;93.04;98141.53;4184822;28;20717;-84
2022/12/07 07:45:53;;;;;;;15.70;8.95;;;;;;;5.74;92.01;98137.97;4183777;28;20313;-84
2022/12/07 07:47:56;;;;;;;13.40;9.40;;;;;;;5.74;92.21;98138.81;4183285;28;20211;-84
2022/12/07 07:50:00;;;;;;;15.50;9.43;;;;;;;5.76;92.47;98138.75;4188009;28;20685;-84
2022/12/07 07:52:06;;;;;;;11.38;8.52;;;;;;;5.79;92.52;98143.78;4199790;28;20197;-84
2022/12/07 07:54:08;;;;;;;13.23;9.15;;;;;;;5.80;92.92;98135.09;4195714;28;20209;-85
2022/12/07 07:56:11;;;;;;;13.90;9.60;;;;;;;5.81;92.55;98142.75;4201985;28;20205;-85
2022/12/07 07:58:15;;;;;;;14.80;10.45;;;;;;;5.81;92.84;98145.34;4187262;28;20210;-85
2022/12/07 08:00:19;;;;;;;13.55;8.35;;;;;;;5.83;92.98;98142.69;4202202;28;20213;-85
2022/12/07 08:02:23;;;;;;;13.45;8.30;;;;;;;5.87;93.17;98146.81;4193353;28;20287;-84
2022/12/07 08:04:26;;;;;;;12.98;8.27;;;;;;;5.90;92.92;98151.84;4196602;28;20276;-85
2022/12/07 08:06:29;;;;;;;13.10;9.32;;;;;;;5.93;92.70;98152.53;4192978;28;20218;-86
2022/12/07 08:08:34;;;;;;;14.20;9.07;;;;;;;5.93;92.34;98156.88;4194923;28;20202;-85
2022/12/07 08:10:37;;;;;;;16.40;11.25;;;;;;;5.94;92.29;98158.53;4201894;28;20266;-85
2022/12/07 08:14:59;;;;;;;17.52;10.27;;;;;;;5.99;91.84;98156.56;4200250;28;20229;-84
2022/12/07 08:17:04;;;;;;;12.40;9.35;;;;;;;6.00;92.20;98155.63;4180986;28;20293;-87
2022/12/07 08:19:07;;;;;;;12.90;9.40;;;;;;;6.01;92.47;98150.38;4178022;28;20218;-87
2022/12/07 08:21:12;;;;;;;14.93;9.30;;;;;;;6.04;92.26;98147.66;4196529;28;20201;-86
2022/12/07 08:23:15;;;;;;;12.20;9.02;;;;;;;6.05;91.99;98153.69;4182703;28;20230;-86
2022/12/07 08:25:18;;;;;;;14.73;10.65;;;;;;;6.08;91.94;98157.78;4183937;28;20209;-86
2022/12/07 08:27:26;;;;;;;14.02;10.40;;;;;;;6.13;91.85;98157.53;4177720;28;20214;-87
2022/12/07 08:29:29;;;;;;;17.27;10.82;;;;;;;6.17;91.71;98161.66;4182651;28;20210;-86
2022/12/07 08:31:33;;;;;;;19.23;10.40;;;;;;;6.19;91.98;98160.69;4186604;28;20565;-87
2022/12/07 08:33:37;;;;;;;14.57;10.48;;;;;;;6.20;91.68;98164.94;4178426;28;20425;-87
2022/12/07 08:35:40;;;;;;;16.55;12.52;;;;;;;6.24;91.57;98163.00;4203443;28;20197;-86
2022/12/07 08:37:44;;;;;;;13.18;9.63;;;;;;;6.26;91.42;98162.03;4202487;28;20267;-86
2022/12/07 08:39:47;;;;;;;12.88;9.77;;;;;;;6.30;91.20;98168.75;4199557;28;20259;-86
2022/12/07 08:41:50;;;;;;;12.48;9.50;;;;;;;6.33;91.57;98168.59;4184801;28;20280;-86
2022/12/07 08:43:53;;;;;;;14.63;10.02;;;;;;;6.34;91.94;98170.25;4183747;28;20225;-86
2022/12/07 08:46:04;;;;;;;13.65;9.57;;;;;;;6.39;91.38;98163.09;4200200;28;20616;-86
2022/12/07 08:48:10;;;;;;;14.20;9.75;;;;;;;6.42;91.25;98167.28;4197833;28;20208;-87
2022/12/07 08:50:15;;;;;;;13.85;9.00;;;;;;;6.43;91.54;98159.41;4185015;28;20749;-87
2022/12/07 08:52:18;;;;;;;13.70;9.13;;;;;;;6.46;90.98;98167.03;4192440;28;20383;-86
2022/12/07 08:54:22;;;;;;;11.75;8.90;;;;;;;6.49;89.73;98172.06;4199305;28;20222;-86
2022/12/07 08:56:25;;;;;;;15.02;11.45;;;;;;;6.49;89.63;98172.06;4202819;28;20239;-87
2022/12/07 08:58:28;;;;;;;15.20;9.75;;;;;;;6.52;90.05;98171.91;4216967;28;20264;-87
2022/12/07 09:00:31;;;;;;;17.88;11.27;;;;;;;6.56;90.08;98177.78;4187816;28;20689;-86
2022/12/07 09:02:34;;;;;;;17.98;11.68;;;;;;;6.55;89.26;98169.16;4204769;28;20204;-86
2022/12/07 09:04:37;;;;;;;15.13;10.90;;;;;;;6.53;89.32;98176.19;4190084;28;20280;-87
2022/12/07 09:06:42;;;;;;;13.88;9.57;;;;;;;6.51;88.50;98172.84;4206403;28;20232;-86
2022/12/07 09:08:48;;;;;;;13.60;9.55;;;;;;;6.51;88.03;98167.66;4200849;28;20261;-86
2022/12/07 09:10:51;;;;;;;14.20;9.63;;;;;;;6.55;87.62;98168.34;4191036;28;20237;-86
2022/12/07 09:12:54;;;;;;;12.90;8.55;;;;;;;6.56;87.29;98170.03;4187139;28;20206;-86
2022/12/07 09:14:57;;;;;;;12.30;8.50;;;;;;;6.51;85.80;98157.31;4200648;28;20760;-86
2022/12/07 09:17:06;;;;;;;12.30;8.82;;;;;;;6.46;86.51;98161.03;4185465;28;20292;-87
2022/12/07 09:19:09;;;;;;;12.07;7.70;;;;;;;6.45;86.51;98155.03;4197209;28;20217;-87
2022/12/07 09:21:12;;;;;;;11.95;7.68;;;;;;;6.48;86.01;98161.78;4200566;28;20213;-87
2022/12/07 09:23:17;;;;;;;33.13;21.65;;;;;;;6.51;85.95;98157.31;4198274;28;20219;-86
2022/12/07 09:25:20;;;;;;;17.25;9.95;;;;;;;6.56;85.82;98157.91;4213735;28;20198;-87
2022/12/07 09:27:23;;;;;;;17.80;11.20;;;;;;;6.56;85.62;98161.31;4208207;28;20208;-86
2022/12/07 09:29:26;;;;;;;14.60;10.80;;;;;;;6.59;86.43;98158.56;4186492;28;20249;-86
2022/12/07 09:31:29;;;;;;;17.10;8.90;;;;;;;6.64;86.48;98163.50;4196521;28;20209;-87
2022/12/07 09:33:33;;;;;;;13.38;8.30;;;;;;;6.69;86.57;98172.72;4184481;28;20200;-86
2022/12/07 09:35:36;;;;;;;12.27;8.25;;;;;;;6.72;85.19;98161.34;4180658;28;20324;-87
2022/12/07 09:37:39;;;;;;;11.85;8.43;;;;;;;6.72;85.57;98167.38;4190901;28;20203;-86
2022/12/07 09:39:44;;;;;;;17.30;10.98;;;;;;;6.74;86.06;98164.72;4173771;28;20217;-87
2022/12/07 09:41:52;;;;;;;13.38;9.35;;;;;;;6.73;85.59;98163.03;4196842;28;20209;-86
2022/12/07 09:44:04;;;;;;;12.00;8.30;;;;;;;6.75;84.76;98161.19;4183552;28;20339;-86
2022/12/07 09:46:07;;;;;;;14.23;9.55;;;;;;;6.80;85.18;98162.63;4185675;28;20206;-86
2022/12/07 09:48:18;;;;;;;10.70;7.72;;;;;;;6.82;85.52;98162.56;4181330;28;20276;-86
2022/12/07 09:50:29;;;;;;;11.85;7.93;;;;;;;6.84;84.38;98161.56;4203097;28;20233;-86
2022/12/07 09:52:32;;;;;;;14.02;8.40;;;;;;;6.86;85.28;98156.31;4179787;28;20683;-85